Time;durP1;ratioP1;P1;durP2;ratioP2;P2;SDS_P1;SDS_P2;PMS_P1;PMS_P2;Temp;Humidity;BMP_temperature;BMP_pressure;BME280_temperature;BME280_humidity;BME280_pressure;Samples;Min_cycle;Max_cycle;Signal;HPM_P1;HPM_P2
2022/04/12 00:00:34;;;;;;;12.75;2.65;;;21.40;99.90;;;;;;5036096;28;20373;-83
2022/04/12 00:03:01;;;;;;;12.05;2.30;;;21.40;99.90;;;;;;5032533;28;20397;-82
2022/04/12 00:05:28;;;;;;;9.57;2.28;;;21.40;99.90;;;;;;5032641;28;20455;-84
2022/04/12 00:07:55;;;;;;;12.65;2.10;;;21.40;99.90;;;;;;5016409;28;20379;-82
2022/04/12 00:10:22;;;;;;;9.75;2.40;;;21.40;99.90;;;;;;5012363;28;20383;-83
2022/04/12 00:12:49;;;;;;;14.52;2.72;;;21.20;99.90;;;;;;5012737;28;20784;-85
2022/04/12 00:15:16;;;;;;;11.50;2.53;;;21.20;99.90;;;;;;5017460;28;20401;-85
2022/04/12 00:20:29;;;;;;;11.80;2.50;;;20.60;99.90;;;;;;5032480;28;20373;-86
2022/04/12 00:22:57;;;;;;;9.13;2.30;;;20.70;99.90;;;;;;5024483;28;20944;-83
2022/04/12 00:25:25;;;;;;;10.35;2.13;;;21.00;99.90;;;;;;5032063;28;20427;-84
2022/04/12 00:27:54;;;;;;;8.80;2.08;;;21.30;99.90;;;;;;5018397;28;20446;-83
2022/04/12 00:30:22;;;;;;;13.10;2.30;;;21.50;99.90;;;;;;5032149;28;20378;-83
2022/04/12 00:32:52;;;;;;;11.32;2.38;;;21.70;99.90;;;;;;5024753;28;20443;-84
2022/04/12 00:35:24;;;;;;;10.18;2.30;;;21.70;99.90;;;;;;5012427;28;20389;-84
2022/04/12 00:37:52;;;;;;;11.55;2.13;;;21.20;99.90;;;;;;5013321;28;20391;-83
2022/04/12 00:40:19;;;;;;;13.23;2.60;;;21.10;99.90;;;;;;5011891;28;20901;-84
2022/04/12 00:42:47;;;;;;;10.88;2.30;;;21.10;99.90;;;;;;5013161;28;20443;-83
2022/04/12 00:45:15;;;;;;;11.52;2.30;;;21.30;99.90;;;;;;5014412;28;20461;-84
2022/04/12 00:47:43;;;;;;;13.10;2.65;;;21.30;99.90;;;;;;5022134;28;20399;-82
2022/04/12 00:50:12;;;;;;;16.73;2.63;;;21.60;99.90;;;;;;5012030;28;20447;-83
2022/04/12 00:52:53;;;;;;;12.80;2.55;;;21.70;99.90;;;;;;5025481;28;20382;-83
2022/04/12 00:55:21;;;;;;;13.32;2.30;;;21.90;99.90;;;;;;5031772;28;20382;-83
2022/04/12 00:57:49;;;;;;;10.32;2.15;;;22.10;99.90;;;;;;5031783;28;20384;-83
2022/04/12 01:00:17;;;;;;;11.37;2.33;;;22.20;99.90;;;;;;5031706;28;20385;-84
2022/04/12 01:02:45;;;;;;;10.75;2.10;;;22.40;99.90;;;;;;5031598;28;20737;-84
2022/04/12 01:05:12;;;;;;;15.38;2.80;;;22.50;99.90;;;;;;5031462;28;20417;-84
2022/04/12 01:07:40;;;;;;;12.75;2.28;;;22.80;99.90;;;;;;5030613;28;20464;-84
2022/04/12 01:10:07;;;;;;;10.57;2.40;;;22.90;99.90;;;;;;5031441;28;20806;-83
2022/04/12 01:12:46;;;;;;;8.77;2.22;;;22.80;99.90;;;;;;5031330;28;20413;-84
2022/04/12 01:15:16;;;;;;;11.80;2.40;;;22.90;99.90;;;;;;5048460;28;20421;-83
2022/04/12 01:17:44;;;;;;;9.65;2.20;;;22.90;99.50;;;;;;5050559;28;20430;-83
2022/04/12 01:20:17;;;;;;;11.00;2.10;;;22.60;99.90;;;;;;5051159;28;20383;-85
2022/04/12 01:22:56;;;;;;;12.52;2.40;;;22.60;99.90;;;;;;5051210;28;20855;-84
2022/04/12 01:25:24;;;;;;;12.02;2.10;;;22.60;99.90;;;;;;5050994;28;20372;-84
2022/04/12 01:27:51;;;;;;;11.65;2.50;;;22.70;99.90;;;;;;5051143;28;20466;-91
2022/04/12 01:30:18;;;;;;;8.85;2.00;;;22.60;99.90;;;;;;5049604;28;20438;-87
2022/04/12 01:32:49;;;;;;;11.48;2.40;;;22.70;99.90;;;;;;5070581;22;21143;-84
2022/04/12 01:35:16;;;;;;;14.65;2.97;;;22.70;99.90;;;;;;5071319;28;20791;-83
2022/04/12 01:37:43;;;;;;;11.25;2.80;;;22.80;99.90;;;;;;5070966;28;20381;-83
2022/04/12 01:40:10;;;;;;;13.55;2.60;;;22.90;99.90;;;;;;5067630;28;20390;-83
2022/04/12 01:42:38;;;;;;;11.30;2.40;;;22.90;99.90;;;;;;5065397;28;21021;-83
2022/04/12 01:45:07;;;;;;;10.38;2.22;;;23.40;99.90;;;;;;5051936;28;20517;-87
2022/04/12 01:47:34;;;;;;;11.68;2.40;;;23.90;98.70;;;;;;5051733;28;20769;-84
2022/04/12 01:50:03;;;;;;;9.27;2.13;;;24.20;97.60;;;;;;5051886;28;20388;-86
2022/04/12 01:52:29;;;;;;;8.90;2.10;;;25.00;97.40;;;;;;5053154;28;20892;-84
2022/04/12 01:55:00;;;;;;;9.57;2.38;;;25.40;93.80;;;;;;5059232;28;20391;-84
2022/04/12 01:57:27;;;;;;;8.45;2.20;;;25.40;91.40;;;;;;5055401;28;20925;-83
2022/04/12 01:59:54;;;;;;;9.50;2.15;;;25.80;91.80;;;;;;5070220;28;20477;-83
2022/04/12 02:02:21;;;;;;;8.95;1.88;;;26.20;90.30;;;;;;5062440;28;20380;-84
2022/04/12 02:04:47;;;;;;;7.60;2.40;;;27.20;86.50;;;;;;5050529;28;20400;-82
2022/04/12 02:07:14;;;;;;;8.23;2.00;;;27.90;83.50;;;;;;5050329;28;20415;-82
2022/04/12 02:09:41;;;;;;;7.30;2.08;;;28.40;77.60;;;;;;5061914;28;20718;-82
2022/04/12 02:12:10;;;;;;;11.52;2.20;;;27.10;75.10;;;;;;5070518;28;20470;-82
2022/04/12 02:14:37;;;;;;;11.60;2.13;;;25.80;79.10;;;;;;5070049;28;20428;-83
2022/04/12 02:17:04;;;;;;;12.80;2.50;;;25.10;84.50;;;;;;5069945;28;20378;-82
2022/04/12 02:19:31;;;;;;;10.05;2.30;;;24.80;87.40;;;;;;5058725;28;20376;-83
2022/04/12 02:21:58;;;;;;;9.57;2.33;;;24.50;87.40;;;;;;5050077;28;20429;-82
2022/04/12 02:24:25;;;;;;;9.65;2.53;;;24.00;90.20;;;;;;5060132;28;21018;-82
2022/04/12 02:26:52;;;;;;;12.13;2.50;;;23.50;92.30;;;;;;5065230;28;20386;-83
2022/04/12 02:29:19;;;;;;;8.18;2.20;;;23.10;95.30;;;;;;5050126;28;20875;-84
2022/04/12 02:31:46;;;;;;;8.15;2.13;;;23.10;96.40;;;;;;5063836;28;20379;-86
2022/04/12 02:34:13;;;;;;;8.32;2.00;;;23.30;95.90;;;;;;5059519;28;20402;-86
2022/04/12 02:36:40;;;;;;;11.60;2.23;;;23.30;96.10;;;;;;5055324;28;20902;-83
2022/04/12 02:39:07;;;;;;;11.90;2.40;;;23.40;95.30;;;;;;5050845;28;20469;-84
2022/04/12 02:41:36;;;;;;;11.02;2.20;;;23.30;96.60;;;;;;5055592;28;20471;-84
2022/04/12 02:44:03;;;;;;;8.55;2.30;;;23.00;96.70;;;;;;5070803;28;20443;-84
2022/04/12 02:46:30;;;;;;;9.90;2.25;;;22.90;97.50;;;;;;5088909;28;20447;-84
2022/04/12 02:48:57;;;;;;;9.10;2.25;;;22.80;98.70;;;;;;5076061;28;20870;-84
2022/04/12 02:51:24;;;;;;;10.07;2.40;;;24.10;97.40;;;;;;5052061;28;20397;-85
2022/04/12 02:53:51;;;;;;;14.38;2.53;;;25.60;92.80;;;;;;5070505;28;20857;-84
2022/04/12 02:56:18;;;;;;;10.50;2.33;;;26.40;88.20;;;;;;5069969;28;20367;-86
2022/04/12 02:58:45;;;;;;;11.70;2.80;;;26.10;85.70;;;;;;5056481;28;20423;-84
2022/04/12 03:01:12;;;;;;;9.43;2.30;;;26.00;84.60;;;;;;5063406;28;20386;-85
2022/04/12 03:03:39;;;;;;;8.30;2.05;;;26.70;83.80;;;;;;5067120;28;20441;-85
2022/04/12 03:06:06;;;;;;;9.93;2.22;;;28.10;78.40;;;;;;5051723;28;20471;-84
2022/04/12 03:08:33;;;;;;;9.87;2.27;;;29.50;72.10;;;;;;5059213;28;20394;-84
2022/04/12 03:11:00;;;;;;;11.32;2.60;;;30.00;71.00;;;;;;5071936;28;20453;-84
2022/04/12 03:13:27;;;;;;;7.20;2.15;;;29.60;65.20;;;;;;5064952;28;20422;-84
2022/04/12 03:15:54;;;;;;;9.95;2.38;;;28.40;66.70;;;;;;5055371;28;20513;-85
2022/04/12 03:18:21;;;;;;;8.27;2.28;;;27.20;71.00;;;;;;5073010;28;20882;-87
2022/04/12 03:20:51;;;;;;;7.80;2.35;;;25.80;77.10;;;;;;5068271;28;20424;-85
2022/04/12 03:23:19;;;;;;;11.38;2.40;;;24.80;82.10;;;;;;5054642;28;20427;-85
2022/04/12 03:25:46;;;;;;;6.90;2.40;;;24.30;84.70;;;;;;5058869;28;20386;-84
2022/04/12 03:28:16;;;;;;;11.23;2.50;;;23.90;88.30;;;;;;5073011;28;20366;-85
2022/04/12 03:30:43;;;;;;;8.30;2.30;;;23.80;90.40;;;;;;5073442;28;20389;-84
2022/04/12 03:33:10;;;;;;;10.27;2.60;;;23.70;91.70;;;;;;5070697;28;20401;-84
2022/04/12 03:35:37;;;;;;;10.48;2.40;;;23.70;91.40;;;;;;5064000;28;21917;-85
2022/04/12 03:38:04;;;;;;;9.75;2.30;;;24.20;91.00;;;;;;5063932;28;20389;-85
2022/04/12 03:40:32;;;;;;;7.03;2.00;;;26.00;86.50;;;;;;5061345;28;20412;-84
2022/04/12 03:43:04;;;;;;;7.22;2.05;;;28.00;77.30;;;;;;5054837;28;20753;-83
2022/04/12 03:45:32;;;;;;;6.22;2.10;;;28.70;72.50;;;;;;5073001;28;20439;-83
2022/04/12 03:48:00;;;;;;;8.03;2.10;;;29.80;67.30;;;;;;5066159;28;20470;-85
2022/04/12 03:50:27;;;;;;;6.15;2.15;;;31.00;63.60;;;;;;5055126;28;20389;-84
2022/04/12 03:52:54;;;;;;;7.43;2.20;;;31.60;62.50;;;;;;5059870;28;20384;-84
2022/04/12 03:55:31;;;;;;;7.40;2.13;;;32.30;57.20;;;;;;5052788;28;20986;-84
2022/04/12 03:58:06;;;;;;;9.45;2.28;;;33.00;55.20;;;;;;5063070;28;20386;-84
2022/04/12 04:00:36;;;;;;;6.10;1.90;;;33.30;53.00;;;;;;5072685;28;20385;-84
2022/04/12 04:03:03;;;;;;;8.52;2.00;;;33.60;52.20;;;;;;5054259;28;20930;-84
2022/04/12 04:05:30;;;;;;;6.47;2.10;;;33.60;50.90;;;;;;5057908;28;20751;-84
2022/04/12 04:07:57;;;;;;;5.65;2.00;;;32.50;52.70;;;;;;5064870;28;20405;-84
2022/04/12 04:10:24;;;;;;;6.55;2.15;;;30.80;55.00;;;;;;5065144;28;20414;-85
2022/04/12 04:12:53;;;;;;;9.95;2.22;;;29.30;58.00;;;;;;5064853;28;20366;-85
2022/04/12 04:15:20;;;;;;;10.13;2.40;;;28.00;61.30;;;;;;5072452;28;20382;-84
2022/04/12 04:17:48;;;;;;;9.10;2.30;;;27.10;64.50;;;;;;5052107;28;20882;-84
2022/04/12 04:20:17;;;;;;;8.02;1.83;;;26.30;67.20;;;;;;5034506;28;20399;-86
2022/04/12 04:22:47;;;;;;;8.20;2.30;;;25.50;69.50;;;;;;5069072;28;20366;-84
2022/04/12 04:25:15;;;;;;;7.63;2.08;;;25.00;72.20;;;;;;5072156;28;20470;-86
2022/04/12 04:27:43;;;;;;;9.57;2.20;;;24.60;75.30;;;;;;5071025;28;20424;-85
2022/04/12 04:30:11;;;;;;;7.53;2.27;;;24.30;78.20;;;;;;5071910;28;20374;-85
2022/04/12 04:32:40;;;;;;;12.30;2.40;;;24.10;81.50;;;;;;5071885;28;20474;-84
2022/04/12 04:35:10;;;;;;;10.48;2.50;;;23.90;85.70;;;;;;5071999;28;20375;-85
2022/04/12 04:37:47;;;;;;;10.38;2.30;;;23.60;88.50;;;;;;5072063;28;20401;-84
2022/04/12 04:40:16;;;;;;;9.48;2.42;;;23.40;90.00;;;;;;5071840;28;20449;-85
2022/04/12 04:42:44;;;;;;;10.55;2.50;;;23.40;91.40;;;;;;5069666;28;20370;-85
2022/04/12 04:45:12;;;;;;;9.82;2.53;;;23.40;91.90;;;;;;5051706;28;20378;-85
2022/04/12 04:47:53;;;;;;;9.10;2.50;;;23.30;92.30;;;;;;5052025;28;20894;-85
2022/04/12 04:50:22;;;;;;;8.13;2.42;;;23.30;92.10;;;;;;5048200;28;20395;-84
2022/04/12 04:52:49;;;;;;;9.77;2.45;;;23.30;92.10;;;;;;5071395;28;20377;-84
2022/04/12 04:55:17;;;;;;;13.15;2.45;;;23.30;92.80;;;;;;5071661;28;20464;-84
2022/04/12 04:57:46;;;;;;;12.25;2.65;;;23.10;92.80;;;;;;5069483;28;20746;-83
2022/04/12 05:00:16;;;;;;;12.00;2.50;;;23.10;93.20;;;;;;5056633;28;20466;-85
2022/04/12 05:02:47;;;;;;;10.20;2.42;;;22.80;94.30;;;;;;5070153;28;20427;-84
2022/04/12 05:05:15;;;;;;;11.27;2.45;;;22.70;94.90;;;;;;5053421;28;20399;-84
2022/04/12 05:07:52;;;;;;;9.95;2.42;;;22.60;95.80;;;;;;5068679;28;20870;-85
2022/04/12 05:10:22;;;;;;;10.90;2.70;;;22.60;95.70;;;;;;5071333;28;20413;-85
2022/04/12 05:12:49;;;;;;;8.48;2.70;;;22.60;95.40;;;;;;5060377;28;20384;-84
2022/04/12 05:15:17;;;;;;;10.90;2.90;;;22.60;95.10;;;;;;5066725;28;20910;-84
2022/04/12 05:17:54;;;;;;;9.82;2.60;;;22.50;95.20;;;;;;5070893;28;20715;-85
2022/04/12 05:20:24;;;;;;;8.18;2.28;;;22.40;96.10;;;;;;5071054;28;20471;-84
2022/04/12 05:22:51;;;;;;;9.45;2.40;;;22.30;96.10;;;;;;5070993;28;20366;-84
2022/04/12 05:25:18;;;;;;;8.70;2.40;;;22.20;96.00;;;;;;5070985;28;20386;-85
2022/04/12 05:27:45;;;;;;;10.23;2.70;;;22.10;96.20;;;;;;5070946;28;20381;-84
2022/04/12 05:30:13;;;;;;;10.47;2.50;;;22.10;96.60;;;;;;5071162;28;20417;-85
2022/04/12 05:32:41;;;;;;;9.65;2.50;;;22.10;96.80;;;;;;5052735;28;20723;-85
2022/04/12 05:35:09;;;;;;;11.98;2.78;;;22.10;98.00;;;;;;5070780;28;20382;-85
2022/04/12 05:37:46;;;;;;;11.45;2.60;;;22.00;98.00;;;;;;5052731;28;20374;-86
2022/04/12 05:40:15;;;;;;;13.95;2.65;;;22.00;98.40;;;;;;5070455;28;20496;-83
2022/04/12 05:42:42;;;;;;;11.45;2.55;;;21.80;98.70;;;;;;5070665;28;20423;-85
2022/04/12 05:45:11;;;;;;;10.63;2.63;;;21.80;99.00;;;;;;5052809;28;20402;-86
2022/04/12 05:47:51;;;;;;;11.15;2.80;;;21.80;98.70;;;;;;5070484;28;20457;-86
2022/04/12 05:50:20;;;;;;;11.75;2.90;;;21.70;98.80;;;;;;5070666;28;20370;-86
2022/04/12 05:52:48;;;;;;;12.48;2.70;;;21.70;99.50;;;;;;5070739;28;20374;-86
2022/04/12 05:55:18;;;;;;;11.55;2.97;;;21.60;99.90;;;;;;5070411;28;20382;-85
2022/04/12 05:57:57;;;;;;;11.30;2.85;;;21.50;99.90;;;;;;5070557;28;20861;-87
2022/04/12 06:00:26;;;;;;;12.43;3.00;;;21.40;99.90;;;;;;5070550;28;20731;-87
2022/04/12 06:02:54;;;;;;;10.13;2.80;;;21.30;99.90;;;;;;5070582;28;20420;-82
2022/04/12 06:05:23;;;;;;;8.55;2.90;;;21.30;99.90;;;;;;5068643;28;20428;-85
2022/04/12 06:07:50;;;;;;;11.55;2.85;;;21.20;99.90;;;;;;5070709;28;20439;-85
2022/04/12 06:10:19;;;;;;;9.50;2.83;;;21.10;99.90;;;;;;5070160;28;20378;-89
2022/04/12 06:12:47;;;;;;;10.38;2.67;;;21.10;99.90;;;;;;5071368;28;20374;-86
2022/04/12 06:15:14;;;;;;;10.85;2.72;;;21.10;99.90;;;;;;5070584;28;20394;-86
2022/04/12 06:17:41;;;;;;;10.55;2.60;;;21.10;99.90;;;;;;5070730;28;20393;-84
2022/04/12 06:20:14;;;;;;;13.30;3.00;;;21.20;99.90;;;;;;5052656;28;20386;-85
2022/04/12 06:22:42;;;;;;;11.07;2.92;;;21.20;99.90;;;;;;5070456;28;20858;-86
2022/04/12 06:25:11;;;;;;;10.48;2.70;;;21.10;99.90;;;;;;5067374;28;20393;-86
2022/04/12 06:27:41;;;;;;;11.15;2.97;;;21.00;99.90;;;;;;5066103;28;20382;-86
2022/04/12 06:30:13;;;;;;;10.40;2.80;;;21.10;99.90;;;;;;5057393;28;20475;-85
2022/04/12 06:32:41;;;;;;;11.27;3.10;;;21.20;99.90;;;;;;5053014;28;20390;-88
2022/04/12 06:35:10;;;;;;;11.38;3.08;;;21.30;99.90;;;;;;5068960;28;20386;-84
2022/04/12 06:37:39;;;;;;;10.75;2.83;;;21.30;99.90;;;;;;5047431;28;20400;-84
2022/04/12 06:40:08;;;;;;;12.80;3.03;;;21.30;99.90;;;;;;5081240;28;20455;-83
2022/04/12 06:42:36;;;;;;;9.57;3.03;;;21.20;99.90;;;;;;5074889;28;20709;-84
2022/04/12 06:45:04;;;;;;;13.75;3.10;;;21.10;99.90;;;;;;5091045;28;20433;-87
2022/04/12 06:47:32;;;;;;;10.25;3.30;;;21.00;99.90;;;;;;5094530;28;20369;-84
2022/04/12 06:49:59;;;;;;;15.10;3.30;;;21.00;99.90;;;;;;5069935;28;20394;-87
2022/04/12 06:52:26;;;;;;;10.70;2.97;;;21.00;99.90;;;;;;5054128;28;20796;-88
2022/04/12 06:54:53;;;;;;;13.45;3.33;;;20.90;99.90;;;;;;5054114;28;20371;-86
2022/04/12 06:57:20;;;;;;;10.25;3.03;;;20.80;99.90;;;;;;5054291;28;20457;-85
2022/04/12 06:59:47;;;;;;;11.02;3.22;;;20.60;99.90;;;;;;5054110;28;20871;-86
2022/04/12 07:02:14;;;;;;;11.23;3.15;;;20.50;99.90;;;;;;5065226;28;20392;-88
2022/04/12 07:04:42;;;;;;;10.15;3.20;;;20.50;99.90;;;;;;5054163;28;20403;-87
2022/04/12 07:07:09;;;;;;;10.88;2.90;;;20.30;99.90;;;;;;5063979;28;20907;-89
2022/04/12 07:09:36;;;;;;;12.13;3.30;;;20.30;99.90;;;;;;5074170;28;20456;-90
2022/04/12 07:12:03;;;;;;;13.30;3.60;;;20.20;99.90;;;;;;5071575;28;20909;-88
2022/04/12 07:14:31;;;;;;;10.10;3.30;;;20.20;99.90;;;;;;5061148;28;20461;-84
2022/04/12 07:16:59;;;;;;;11.23;3.20;;;20.10;99.90;;;;;;5058937;28;20383;-84
2022/04/12 07:19:27;;;;;;;11.53;3.37;;;20.00;99.90;;;;;;5035813;28;20964;-91
2022/04/12 07:21:54;;;;;;;9.40;3.30;;;20.00;99.90;;;;;;5061797;28;20389;-86
2022/04/12 07:24:21;;;;;;;12.75;3.50;;;19.90;99.90;;;;;;5058610;28;21021;-85
2022/04/12 07:26:48;;;;;;;11.05;3.33;;;19.90;99.90;;;;;;5067501;28;20382;-85
2022/04/12 07:29:15;;;;;;;11.70;3.22;;;19.80;99.90;;;;;;5063542;28;20394;-89
2022/04/12 07:31:42;;;;;;;13.13;3.60;;;19.80;99.90;;;;;;5037290;28;20496;-86
2022/04/12 07:34:10;;;;;;;9.90;3.50;;;19.70;99.90;;;;;;5058722;28;20402;-87
2022/04/12 07:36:39;;;;;;;11.55;3.22;;;19.70;99.90;;;;;;5041254;28;20386;-88
2022/04/12 07:39:07;;;;;;;12.70;3.65;;;19.70;99.90;;;;;;5070666;28;20392;-87
2022/04/12 07:41:34;;;;;;;13.05;3.65;;;19.60;99.90;;;;;;5059736;28;20380;-84
2022/04/12 07:44:02;;;;;;;13.70;3.70;;;19.50;99.90;;;;;;5062553;28;20408;-84
2022/04/12 07:46:29;;;;;;;9.80;3.30;;;19.50;99.90;;;;;;5065679;28;20372;-85
2022/04/12 07:48:55;;;;;;;12.82;3.30;;;19.50;99.90;;;;;;5057506;28;20412;-84
2022/04/12 07:51:22;;;;;;;11.52;3.25;;;19.40;99.90;;;;;;5070732;28;20460;-84
2022/04/12 07:53:49;;;;;;;9.63;3.47;;;19.40;99.90;;;;;;5069135;28;20385;-85
2022/04/12 07:56:17;;;;;;;10.68;3.50;;;19.30;99.90;;;;;;5070114;28;20395;-84
2022/04/12 07:58:44;;;;;;;12.10;3.50;;;19.30;99.90;;;;;;5058507;28;20387;-84
2022/04/12 08:01:11;;;;;;;9.87;3.33;;;19.20;99.90;;;;;;5064284;28;20475;-85
2022/04/12 08:03:40;;;;;;;11.73;4.10;;;19.20;99.90;;;;;;5057863;28;20486;-86
2022/04/12 08:06:08;;;;;;;15.55;5.43;;;19.20;99.90;;;;;;5072675;28;20734;-85
2022/04/12 08:08:35;;;;;;;17.08;6.20;;;19.10;99.90;;;;;;5041463;28;20390;-85
2022/04/12 08:11:02;;;;;;;27.40;11.88;;;19.00;99.90;;;;;;5054237;28;20468;-85
2022/04/12 08:13:29;;;;;;;21.02;7.63;;;19.00;99.90;;;;;;5065986;28;20395;-85
2022/04/12 08:15:57;;;;;;;83.65;30.98;;;19.00;99.90;;;;;;5052589;28;20455;-86
2022/04/12 08:18:24;;;;;;;14.05;4.43;;;19.00;99.90;;;;;;5066996;28;20392;-86
2022/04/12 08:20:51;;;;;;;13.53;3.53;;;19.00;99.90;;;;;;5056855;28;20390;-85
2022/04/12 08:23:22;;;;;;;8.53;3.10;;;19.00;99.90;;;;;;5064662;28;20395;-88
2022/04/12 08:25:50;;;;;;;12.60;3.55;;;19.10;99.90;;;;;;5069560;28;20451;-88
2022/04/12 08:28:17;;;;;;;10.35;3.17;;;19.10;99.90;;;;;;5070547;28;20440;-84
2022/04/12 08:30:44;;;;;;;13.93;3.30;;;19.00;99.90;;;;;;5075856;28;21301;-86
2022/04/12 08:33:13;;;;;;;8.45;3.00;;;19.10;99.90;;;;;;5050577;28;20474;-86
2022/04/12 08:35:43;;;;;;;12.80;3.53;;;19.00;99.90;;;;;;5066136;28;20385;-85
2022/04/12 08:38:10;;;;;;;9.30;3.20;;;19.10;99.90;;;;;;5053273;28;20372;-86
2022/04/12 08:40:38;;;;;;;11.65;3.30;;;19.10;99.90;;;;;;5064706;28;20385;-86
2022/04/12 08:43:07;;;;;;;12.95;3.38;;;19.00;99.90;;;;;;5054137;28;20383;-88
2022/04/12 08:45:37;;;;;;;8.90;3.30;;;19.00;99.90;;;;;;5046567;28;20389;-84
2022/04/12 08:48:06;;;;;;;10.35;3.40;;;19.00;99.90;;;;;;5051854;28;20379;-83
2022/04/12 08:50:34;;;;;;;11.55;3.53;;;19.00;99.90;;;;;;5053024;28;20871;-84
2022/04/12 08:53:02;;;;;;;11.48;3.47;;;19.00;99.90;;;;;;5051966;28;20408;-84
2022/04/12 08:55:32;;;;;;;15.38;3.40;;;18.90;99.90;;;;;;5051356;28;20433;-84
2022/04/12 08:57:59;;;;;;;11.32;3.28;;;18.90;99.90;;;;;;5051718;28;20372;-83
2022/04/12 09:00:26;;;;;;;13.73;3.83;;;18.90;99.90;;;;;;5036846;28;20429;-84
2022/04/12 09:02:57;;;;;;;14.00;3.67;;;18.90;99.90;;;;;;5031713;28;20404;-83
2022/04/12 09:05:24;;;;;;;11.55;3.38;;;18.90;99.90;;;;;;5031770;28;20384;-83
2022/04/12 09:07:51;;;;;;;13.20;3.35;;;18.90;99.90;;;;;;5031005;28;20384;-83
2022/04/12 09:10:19;;;;;;;12.40;3.38;;;18.80;99.90;;;;;;5033078;28;20750;-83
2022/04/12 09:12:46;;;;;;;15.23;4.30;;;18.80;99.90;;;;;;5032753;28;20424;-84
2022/04/12 09:15:15;;;;;;;14.53;3.87;;;18.80;99.90;;;;;;5031418;28;20373;-84
2022/04/12 09:17:44;;;;;;;14.65;3.60;;;18.90;99.90;;;;;;5031401;28;20377;-84
2022/04/12 09:20:14;;;;;;;17.02;4.05;;;18.80;99.90;;;;;;5031299;28;20457;-84
2022/04/12 09:22:42;;;;;;;13.50;3.80;;;18.90;99.90;;;;;;5031393;28;20804;-84
2022/04/12 09:25:11;;;;;;;12.60;3.30;;;18.80;99.90;;;;;;5040907;28;20411;-85
2022/04/12 09:27:39;;;;;;;22.10;3.75;;;18.80;99.90;;;;;;5050894;28;20385;-84
2022/04/12 09:30:12;;;;;;;13.88;3.70;;;18.80;99.90;;;;;;5051235;28;20939;-84
2022/04/12 09:32:46;;;;;;;18.47;3.93;;;18.80;99.90;;;;;;5057437;28;20407;-84
2022/04/12 09:35:13;;;;;;;13.15;3.58;;;18.70;99.90;;;;;;5071029;28;20366;-83
2022/04/12 09:37:46;;;;;;;17.20;3.78;;;18.60;99.90;;;;;;5065423;28;20898;-83
2022/04/12 09:40:15;;;;;;;14.18;3.70;;;18.60;99.90;;;;;;5050732;28;20375;-83
2022/04/12 09:42:52;;;;;;;15.82;4.40;;;18.50;99.90;;;;;;5051989;28;20430;-83
2022/04/12 09:45:22;;;;;;;15.02;4.22;;;18.50;99.90;;;;;;5050926;28;20380;-83
2022/04/12 09:47:51;;;;;;;13.48;4.22;;;18.50;99.90;;;;;;5050739;28;20364;-84
2022/04/12 09:50:27;;;;;;;13.60;3.80;;;18.50;99.90;;;;;;5050697;28;20384;-84
2022/04/12 09:52:56;;;;;;;12.55;4.03;;;18.50;99.90;;;;;;5050854;28;20380;-84
2022/04/12 09:55:43;;;;;;;11.13;3.50;;;18.50;99.90;;;;;;5050375;28;20399;-83
2022/04/12 09:58:16;;;;;;;12.60;3.50;;;18.50;99.90;;;;;;5069973;28;20381;-83
2022/04/12 10:00:49;;;;;;;14.23;3.88;;;18.50;99.90;;;;;;5070780;28;20362;-84
2022/04/12 10:03:19;;;;;;;12.40;3.85;;;18.40;99.90;;;;;;5070340;28;20396;-84
2022/04/12 10:05:47;;;;;;;12.43;3.72;;;18.40;99.90;;;;;;5072268;28;20525;-83
2022/04/12 10:08:19;;;;;;;12.60;3.42;;;18.40;99.90;;;;;;5077032;28;20386;-83
2022/04/12 10:10:46;;;;;;;11.47;3.80;;;18.50;99.90;;;;;;5070799;28;20369;-83
2022/04/12 10:13:30;;;;;;;12.55;3.72;;;18.40;99.90;;;;;;5058308;28;20897;-91
2022/04/12 10:15:57;;;;;;;11.30;3.97;;;18.40;99.90;;;;;;5047975;28;20451;-89
2022/04/12 10:18:25;;;;;;;13.20;4.00;;;18.30;99.90;;;;;;5029505;28;20884;-90
2022/04/12 10:20:52;;;;;;;15.30;3.90;;;18.20;99.90;;;;;;5043651;28;20768;-89
2022/04/12 10:23:23;;;;;;;14.00;4.10;;;18.20;99.90;;;;;;5053195;28;20465;-90
2022/04/12 10:25:58;;;;;;;11.90;3.90;;;18.20;99.90;;;;;;5052485;28;20388;-91
2022/04/12 10:28:27;;;;;;;13.80;3.83;;;18.20;99.90;;;;;;5051723;28;20371;-90
2022/04/12 10:31:14;;;;;;;14.07;4.30;;;18.10;99.90;;;;;;5048953;28;20405;-92
2022/04/12 10:33:50;;;;;;;12.63;4.03;;;18.10;99.90;;;;;;5049803;28;20408;-85
2022/04/12 10:36:17;;;;;;;15.02;4.18;;;18.20;99.90;;;;;;5032912;28;20435;-89
2022/04/12 10:38:45;;;;;;;10.27;4.20;;;18.20;99.90;;;;;;5038668;28;20383;-91
2022/04/12 10:41:14;;;;;;;16.83;4.60;;;18.20;99.90;;;;;;5046782;28;20383;-87
2022/04/12 10:43:41;;;;;;;17.17;4.63;;;18.00;99.90;;;;;;5044622;28;20461;-89
2022/04/12 10:46:12;;;;;;;10.93;4.30;;;18.10;99.90;;;;;;5050137;28;20395;-91
2022/04/12 10:48:39;;;;;;;16.83;4.50;;;18.10;99.90;;;;;;5036310;28;20516;-89
2022/04/12 10:51:07;;;;;;;13.10;4.07;;;18.10;99.90;;;;;;5020671;28;20390;-90
2022/04/12 10:53:40;;;;;;;11.88;3.80;;;18.00;99.90;;;;;;5050344;28;20392;-88
2022/04/12 10:56:10;;;;;;;10.25;3.70;;;18.00;99.90;;;;;;5050900;28;20435;-86
2022/04/12 10:58:38;;;;;;;16.17;4.38;;;18.00;99.90;;;;;;5033144;28;20472;-88
2022/04/12 11:01:09;;;;;;;13.88;4.20;;;18.00;99.90;;;;;;5035427;28;20816;-89
2022/04/12 11:03:45;;;;;;;14.10;4.20;;;17.90;99.90;;;;;;5044219;28;20480;-88
2022/04/12 11:06:25;;;;;;;11.13;4.15;;;17.90;99.90;;;;;;5036648;28;20386;-87
2022/04/12 11:09:06;;;;;;;11.50;3.85;;;17.90;99.90;;;;;;5022665;28;20396;-88
2022/04/12 11:11:42;;;;;;;13.73;4.25;;;17.90;99.90;;;;;;5037624;28;20471;-89
2022/04/12 11:14:41;;;;;;;12.47;4.10;;;17.90;99.90;;;;;;5042450;28;20507;-88
2022/04/12 11:17:15;;;;;;;10.07;4.00;;;17.80;99.90;;;;;;4974105;28;20402;-88
2022/04/12 11:19:50;;;;;;;11.33;3.90;;;17.80;99.90;;;;;;4977571;28;20395;-88
2022/04/12 11:22:20;;;;;;;14.38;3.80;;;17.70;99.90;;;;;;4982276;28;20432;-90
2022/04/12 11:25:16;;;;;;;12.93;4.13;;;17.70;99.90;;;;;;4974916;28;20783;-88
2022/04/12 11:27:43;;;;;;;12.40;4.32;;;17.60;99.90;;;;;;4941743;29;20411;-92
2022/04/12 11:30:14;;;;;;;10.93;4.10;;;17.60;99.90;;;;;;4941750;29;20457;-88
2022/04/12 11:32:45;;;;;;;13.30;4.10;;;17.50;99.90;;;;;;4936265;29;20389;-88
2022/04/12 11:35:12;;;;;;;12.98;4.30;;;17.50;99.90;;;;;;4945975;29;20396;-88
2022/04/12 11:37:43;;;;;;;12.73;4.60;;;17.50;99.90;;;;;;4955393;29;20465;-88
2022/04/12 11:40:11;;;;;;;13.00;4.15;;;17.50;99.90;;;;;;4942635;29;20401;-87
2022/04/12 11:42:38;;;;;;;15.07;4.15;;;17.40;99.90;;;;;;4947457;29;20814;-89
2022/04/12 11:45:06;;;;;;;17.40;4.45;;;17.40;99.90;;;;;;4938762;29;20951;-88
2022/04/12 11:47:38;;;;;;;16.23;4.60;;;17.40;99.90;;;;;;4938981;29;20865;-91
2022/04/12 11:50:26;;;;;;;13.45;4.60;;;17.40;99.90;;;;;;4951896;29;20404;-89
2022/04/12 11:52:53;;;;;;;13.95;4.90;;;17.30;99.90;;;;;;4964957;28;20957;-89
2022/04/12 11:55:20;;;;;;;15.65;5.28;;;17.30;99.90;;;;;;4973040;28;20506;-88
2022/04/12 11:57:49;;;;;;;14.73;5.43;;;17.30;99.90;;;;;;4962556;28;20396;-88
2022/04/12 12:00:17;;;;;;;15.90;5.07;;;17.30;99.90;;;;;;4973646;28;20482;-88
2022/04/12 12:02:44;;;;;;;16.23;5.53;;;17.30;99.90;;;;;;4970583;28;21737;-87
2022/04/12 12:05:13;;;;;;;16.00;5.60;;;17.20;99.90;;;;;;5038704;28;20419;-89
2022/04/12 12:07:40;;;;;;;13.68;5.20;;;17.20;99.90;;;;;;5041124;28;20889;-88
2022/04/12 12:10:14;;;;;;;13.98;4.85;;;17.20;99.90;;;;;;5045394;28;20448;-88
2022/04/12 12:12:46;;;;;;;15.35;4.65;;;17.10;99.90;;;;;;5034614;28;20398;-87
2022/04/12 12:15:28;;;;;;;12.45;4.13;;;17.10;99.90;;;;;;5035249;28;20396;-90
2022/04/12 12:17:57;;;;;;;11.82;4.18;;;17.10;99.90;;;;;;5049404;23;20454;-82
2022/04/12 12:20:27;;;;;;;16.85;3.90;;;17.10;99.90;;;;;;5056786;28;20886;-81
2022/04/12 12:23:01;;;;;;;11.38;4.00;;;17.00;99.90;;;;;;5054658;28;20394;-83
2022/04/12 12:25:51;;;;;;;11.55;3.90;;;17.00;99.90;;;;;;5055766;28;20394;-81
2022/04/12 12:28:21;;;;;;;11.13;3.78;;;16.90;99.90;;;;;;5043718;28;20427;-81
2022/04/12 12:31:07;;;;;;;11.15;3.80;;;16.90;99.90;;;;;;5056012;28;20394;-81
2022/04/12 12:33:52;;;;;;;12.25;4.00;;;16.90;99.90;;;;;;5067109;28;20401;-81
2022/04/12 12:36:24;;;;;;;12.20;4.00;;;16.80;99.90;;;;;;5057626;28;20422;-80
2022/04/12 12:38:52;;;;;;;12.57;3.92;;;16.80;99.90;;;;;;5055974;28;20398;-80
2022/04/12 12:41:28;;;;;;;13.60;4.25;;;16.70;99.90;;;;;;5053753;28;20387;-80
2022/04/12 12:43:56;;;;;;;11.65;3.83;;;16.70;99.90;;;;;;5052170;28;20411;-81
2022/04/12 12:46:28;;;;;;;11.23;4.20;;;16.70;99.90;;;;;;5061885;28;20393;-79
2022/04/12 12:49:07;;;;;;;12.95;4.25;;;16.70;99.90;;;;;;5051542;28;20380;-80
2022/04/12 12:51:37;;;;;;;11.65;3.92;;;16.70;99.90;;;;;;5049899;22;20417;-82